Time;durP1;ratioP1;P1;durP2;ratioP2;P2;SDS_P1;SDS_P2;PMS_P1;PMS_P2;Temp;Humidity;BMP_temperature;BMP_pressure;BME280_temperature;BME280_humidity;BME280_pressure;Samples;Min_cycle;Max_cycle;Signal;HPM_P1;HPM_P2
2022/04/11 00:02:04;;;;;;;;;8.67;8.33;;;;;11.01;44.59;101094.97;5017308;28;48549;-64
2022/04/11 00:04:32;;;;;;;;;9.67;7.67;;;;;9.53;44.93;100859.22;5013673;28;45507;-64
2022/04/11 00:06:58;;;;;;;;;8.00;8.00;;;;;11.06;44.87;101098.91;5007624;28;45528;-64
2022/04/11 00:09:23;;;;;;;;;7.33;7.33;;;;;10.96;44.52;101076.75;5018590;28;45486;-65
2022/04/11 00:11:48;;;;;;;;;7.00;6.00;;;;;11.04;44.60;101090.25;5018334;28;45238;-64
2022/04/11 00:14:14;;;;;;;;;11.00;11.00;;;;;10.91;44.88;101071.03;5018261;28;45306;-65
2022/04/11 00:16:40;;;;;;;;;8.33;7.00;;;;;10.89;44.87;101091.59;5018584;28;45393;-65
2022/04/11 00:19:08;;;;;;;;;6.00;6.00;;;;;10.80;45.09;101095.91;5017591;28;45442;-64
2022/04/11 00:21:33;;;;;;;;;8.33;8.33;;;;;10.80;45.23;101093.25;5017857;28;45593;-65
2022/04/11 00:23:59;;;;;;;;;7.00;7.00;;;;;10.82;45.53;101087.81;5018119;28;45389;-65
2022/04/11 00:26:24;;;;;;;;;10.33;7.00;;;;;10.69;45.29;101071.28;5018434;28;45249;-65
2022/04/11 00:28:57;;;;;;;;;8.67;7.33;;;;;10.56;45.39;101067.03;5017448;28;45444;-64
2022/04/11 00:31:22;;;;;;;;;11.67;7.00;;;;;10.61;45.42;101075.47;5017875;28;46126;-63
2022/04/11 00:33:48;;;;;;;;;10.00;7.00;;;;;10.36;45.63;101022.78;5017475;28;45311;-64
2022/04/11 00:36:14;;;;;;;;;9.00;7.67;;;;;10.31;45.73;101006.41;5018005;28;45384;-65
2022/04/11 00:38:39;;;;;;;;;7.00;7.00;;;;;10.62;45.67;101052.38;5018522;28;45540;-64
2022/04/11 00:41:04;;;;;;;;;6.67;6.67;;;;;10.55;45.96;101052.06;5017832;28;47613;-64
2022/04/11 00:43:34;;;;;;;;;8.00;6.33;;;;;10.27;45.67;100989.06;5017861;28;45239;-64
2022/04/11 00:46:00;;;;;;;;;6.67;6.67;;;;;10.55;45.91;101033.44;5018059;28;45399;-64
2022/04/11 00:48:26;;;;;;;;;8.67;6.67;;;;;10.57;46.11;101036.81;5017654;28;45542;-64
2022/04/11 00:50:59;;;;;;;;;7.00;7.00;;;;;10.47;46.08;100993.44;5017625;28;46156;-65
2022/04/11 00:53:25;;;;;;;;;6.67;6.67;;;;;10.64;46.29;101030.00;5017871;28;45289;-64
2022/04/11 00:55:54;;;;;;;;;8.00;7.33;;;;;10.56;46.08;101007.72;5017847;28;45324;-64
2022/04/11 00:58:19;;;;;;;;;9.00;9.00;;;;;10.58;45.80;101025.19;5018112;28;45511;-64
2022/04/11 01:00:45;;;;;;;;;8.67;7.33;;;;;10.61;45.65;101019.63;5017513;28;46813;-64
2022/04/11 01:03:10;;;;;;;;;8.33;7.67;;;;;10.59;45.23;101012.75;5016976;28;45376;-63
2022/04/11 01:05:38;;;;;;;;;6.00;6.00;;;;;10.58;45.41;101005.75;5016485;28;45554;-63
2022/04/11 01:08:09;;;;;;;;;7.00;6.00;;;;;10.52;45.90;101007.16;5017941;28;45240;-64
2022/04/11 01:10:34;;;;;;;;;7.00;7.00;;;;;10.42;46.21;100985.03;5017162;28;45913;-64
2022/04/11 01:13:00;;;;;;;;;5.00;5.00;;;;;10.50;45.77;100987.84;5017318;28;45265;-63
2022/04/11 01:15:26;;;;;;;;;5.00;5.00;;;;;10.46;46.50;100975.81;5017500;28;45261;-65
2022/04/11 01:17:52;;;;;;;;;10.67;8.33;;;;;10.26;45.95;100944.84;5017268;28;45292;-64
2022/04/11 01:20:19;;;;;;;;;6.33;5.33;;;;;10.29;46.03;100958.69;5017086;28;46405;-64
2022/04/11 01:22:45;;;;;;;;;9.00;8.00;;;;;10.39;46.17;100979.97;5017186;28;45443;-63
2022/04/11 01:25:11;;;;;;;;;7.67;6.00;;;;;10.47;46.34;100974.81;5017176;28;45441;-64
2022/04/11 01:27:40;;;;;;;;;8.00;8.00;;;;;10.42;45.94;100971.75;5017651;28;45485;-64
2022/04/11 01:30:08;;;;;;;;;8.33;7.00;;;;;10.40;46.52;100965.69;5017117;28;46215;-65
2022/04/11 01:32:35;;;;;;;;;10.33;7.00;;;;;10.36;46.41;100953.66;5015759;28;45214;-64
2022/04/11 01:35:01;;;;;;;;;7.00;6.00;;;;;10.30;46.35;100946.25;5017407;28;45383;-64
2022/04/11 01:37:27;;;;;;;;;6.67;5.67;;;;;10.34;46.53;100960.94;5015928;28;45409;-64
2022/04/11 01:39:52;;;;;;;;;6.33;6.00;;;;;10.09;46.37;100914.44;5016972;28;47564;-64
2022/04/11 01:42:21;;;;;;;;;7.00;7.00;;;;;10.35;46.38;100950.16;5015573;28;45417;-64
2022/04/11 01:44:56;;;;;;;;;7.00;7.00;;;;;10.33;46.43;100953.94;5017362;28;45235;-64
2022/04/11 01:47:22;;;;;;;;;7.67;5.67;;;;;10.25;46.18;100948.50;5017113;28;45341;-64
2022/04/11 01:49:47;;;;;;;;;7.00;6.00;;;;;10.29;46.49;100948.06;5017110;28;45321;-65
2022/04/11 01:52:16;;;;;;;;;6.33;6.33;;;;;10.35;45.41;100952.00;5016853;28;45397;-64
2022/04/11 01:54:41;;;;;;;;;4.67;4.67;;;;;10.01;45.83;100885.91;5017247;28;45261;-64
2022/04/11 01:57:06;;;;;;;;;7.00;7.00;;;;;10.22;46.02;100933.66;5016671;28;45610;-66
2022/04/11 01:59:32;;;;;;;;;8.00;6.00;;;;;10.23;45.99;100937.16;5016951;28;45442;-64
2022/04/11 02:01:57;;;;;;;;;8.00;6.00;;;;;10.25;45.36;100932.56;5016736;28;45455;-64
2022/04/11 02:04:22;;;;;;;;;4.67;4.67;;;;;10.22;45.01;100940.81;5016990;28;45296;-65
2022/04/11 02:06:48;;;;;;;;;4.33;4.33;;;;;9.92;45.40;100892.03;5016918;28;45500;-63
2022/04/11 02:09:13;;;;;;;;;6.33;6.33;;;;;10.11;45.89;100933.72;5015457;28;46581;-65
2022/04/11 02:11:39;;;;;;;;;6.33;6.33;;;;;10.09;45.98;100927.72;5016783;28;45559;-64
2022/04/11 02:14:04;;;;;;;;;6.00;6.00;;;;;9.73;45.88;100870.72;5015426;28;45468;-65
2022/04/11 02:16:29;;;;;;;;;5.00;5.00;;;;;9.99;46.01;100919.72;5011990;28;45609;-64
2022/04/11 02:18:55;;;;;;;;;9.00;8.00;;;;;9.92;46.37;100913.28;4996679;28;45913;-64
2022/04/11 02:21:20;;;;;;;;;6.00;6.00;;;;;10.00;45.96;100921.38;4995566;28;45345;-66
2022/04/11 02:23:48;;;;;;;;;5.33;5.00;;;;;9.98;45.73;100917.19;4998509;28;45405;-66
2022/04/11 02:26:14;;;;;;;;;4.00;4.00;;;;;9.82;45.71;100880.56;5016638;28;45634;-65
2022/04/11 02:28:39;;;;;;;;;2.00;2.00;;;;;10.01;45.48;100906.28;5016585;28;45307;-64
2022/04/11 02:31:04;;;;;;;;;7.00;7.00;;;;;10.04;45.49;100898.91;5016211;28;45286;-64
2022/04/11 02:33:33;;;;;;;;;5.67;5.33;;;;;9.95;45.42;100889.09;5016497;28;45379;-64
2022/04/11 02:35:59;;;;;;;;;6.00;6.00;;;;;9.87;45.45;100873.00;5016668;28;45594;-64
2022/04/11 02:38:24;;;;;;;;;5.33;5.00;;;;;10.04;45.29;100904.22;5016127;28;46134;-64
2022/04/11 02:40:55;;;;;;;;;5.67;5.67;;;;;10.05;45.13;100903.25;5016350;28;45307;-64
2022/04/11 02:43:20;;;;;;;;;5.33;4.00;;;;;9.99;45.17;100892.31;5018639;28;45431;-64
2022/04/11 02:45:45;;;;;;;;;8.00;4.67;;;;;9.95;45.10;100897.06;5020178;28;45459;-65
2022/04/11 02:48:27;;;;;;;;;3.67;3.67;;;;;9.81;44.87;100889.50;5019831;28;45479;-65
2022/04/11 02:50:53;;;;;;;;;6.00;6.00;;;;;9.82;44.73;100888.53;5018439;28;45406;-65
2022/04/11 02:53:18;;;;;;;;;5.00;5.00;;;;;9.64;45.32;100868.91;5019714;28;45290;-64
2022/04/11 02:55:43;;;;;;;;;7.67;5.67;;;;;9.77;45.28;100882.75;5019043;28;45585;-65
2022/04/11 02:58:09;;;;;;;;;3.33;3.33;;;;;9.73;44.92;100871.56;5018117;28;48470;-64
2022/04/11 03:00:34;;;;;;;;;4.00;4.00;;;;;9.38;45.09;100794.22;5018295;28;45880;-65
2022/04/11 03:03:00;;;;;;;;;4.33;4.33;;;;;9.76;45.05;100865.97;5018269;28;45449;-65
2022/04/11 03:05:25;;;;;;;;;6.67;5.00;;;;;9.64;45.20;100839.69;5019968;28;45396;-64
2022/04/11 03:07:50;;;;;;;;;4.67;3.67;;;;;9.73;45.12;100860.94;5019477;28;45918;-65
2022/04/11 03:10:16;;;;;;;;;4.67;4.33;;;;;9.77;45.33;100859.69;5019301;28;45333;-66
2022/04/11 03:12:41;;;;;;;;;6.00;6.00;;;;;9.70;45.22;100840.00;5019443;28;45972;-64
2022/04/11 03:15:07;;;;;;;;;5.00;5.00;;;;;9.78;45.17;100847.25;5019692;28;45330;-65
2022/04/11 03:17:33;;;;;;;;;6.00;4.00;;;;;9.76;44.94;100839.44;5019401;28;46054;-65
2022/04/11 03:19:58;;;;;;;;;5.00;5.00;;;;;9.67;44.97;100808.41;5019054;28;45549;-65
2022/04/11 03:22:23;;;;;;;;;6.33;5.33;;;;;9.74;44.78;100827.28;5019384;28;45424;-64
2022/04/11 03:24:49;;;;;;;;;6.00;6.00;;;;;9.83;45.00;100834.44;5017596;28;45570;-65
2022/04/11 03:27:14;;;;;;;;;5.33;4.00;;;;;9.87;45.00;100846.47;5019051;28;45570;-64
2022/04/11 03:29:39;;;;;;;;;5.33;5.33;;;;;9.87;45.10;100845.63;5019007;28;45391;-64
2022/04/11 03:32:05;;;;;;;;;5.67;5.33;;;;;9.83;44.94;100837.09;5017883;28;45348;-65
2022/04/11 03:34:31;;;;;;;;;3.00;3.00;;;;;9.92;44.64;100852.19;5019378;28;45366;-63
2022/04/11 03:36:56;;;;;;;;;5.67;5.67;;;;;9.89;44.74;100852.47;5000805;28;47951;-64
2022/04/11 03:39:21;;;;;;;;;6.67;5.00;;;;;9.79;44.92;100833.00;5019107;28;45164;-64
2022/04/11 03:41:47;;;;;;;;;4.00;4.00;;;;;9.78;44.70;100828.69;5018950;28;45351;-64
2022/04/11 03:44:12;;;;;;;;;5.00;5.00;;;;;9.81;44.65;100852.31;5019085;28;45452;-64
2022/04/11 03:46:38;;;;;;;;;7.00;5.00;;;;;9.50;44.77;100785.19;5018632;28;46513;-64
2022/04/11 03:49:04;;;;;;;;;5.67;5.67;;;;;9.83;44.75;100823.81;5018808;28;45379;-65
2022/04/11 03:51:29;;;;;;;;;5.67;4.33;;;;;9.75;45.08;100831.59;5018870;28;45318;-63
2022/04/11 03:53:55;;;;;;;;;5.00;5.00;;;;;9.60;45.22;100825.84;5016415;28;45524;-65
2022/04/11 03:56:21;;;;;;;;;5.33;5.00;;;;;9.60;45.00;100827.66;5018330;28;46662;-63
2022/04/11 03:58:47;;;;;;;;;3.33;3.33;;;;;9.41;45.20;100801.91;5018495;28;45319;-64
2022/04/11 04:01:12;;;;;;;;;7.00;5.00;;;;;9.53;45.34;100813.25;5017610;28;45342;-64
2022/04/11 04:03:39;;;;;;;;;4.00;4.00;;;;;9.51;45.45;100812.56;5018685;28;45299;-63
2022/04/11 04:06:04;;;;;;;;;5.00;5.00;;;;;9.54;45.10;100806.97;5018213;28;46663;-64
2022/04/11 04:08:29;;;;;;;;;7.00;5.00;;;;;9.45;45.29;100801.50;5018277;28;45420;-65
2022/04/11 04:10:55;;;;;;;;;7.00;5.00;;;;;9.45;45.39;100798.84;5018061;28;45564;-64
2022/04/11 04:13:20;;;;;;;;;5.33;5.33;;;;;9.41;45.33;100802.75;5018655;28;45459;-65
2022/04/11 04:15:46;;;;;;;;;6.00;4.00;;;;;9.08;45.50;100745.53;5017910;28;45886;-64
2022/04/11 04:18:12;;;;;;;;;5.00;4.00;;;;;9.35;45.57;100797.97;5017931;28;45318;-63
2022/04/11 04:20:38;;;;;;;;;3.00;3.00;;;;;9.27;45.79;100789.03;5018262;28;45428;-63
2022/04/11 04:23:03;;;;;;;;;5.33;5.00;;;;;9.31;45.74;100801.03;5018088;28;45296;-65
2022/04/11 04:25:29;;;;;;;;;6.00;4.33;;;;;9.34;45.81;100793.66;5017132;28;45760;-65
2022/04/11 04:27:54;;;;;;;;;7.33;4.00;;;;;9.33;45.58;100788.47;5017435;28;45218;-66
2022/04/11 04:30:20;;;;;;;;;5.33;5.00;;;;;9.24;45.90;100779.53;5017687;28;45283;-65
2022/04/11 04:32:45;;;;;;;;;6.33;4.00;;;;;9.26;45.47;100784.69;5018126;28;45391;-64
2022/04/11 04:35:12;;;;;;;;;5.00;5.00;;;;;9.13;45.79;100753.94;5017600;28;47421;-63
2022/04/11 04:37:38;;;;;;;;;4.00;3.33;;;;;9.28;45.70;100793.34;5016165;28;45330;-63
2022/04/11 04:40:04;;;;;;;;;5.00;5.00;;;;;9.25;45.70;100773.25;5017884;28;45283;-65
2022/04/11 04:42:29;;;;;;;;;4.00;4.00;;;;;9.23;45.69;100772.53;5017928;28;45586;-63
2022/04/11 04:44:55;;;;;;;;;7.67;4.67;;;;;9.11;45.68;100755.03;5017145;28;47025;-65
2022/04/11 04:47:22;;;;;;;;;6.33;5.00;;;;;9.07;46.02;100762.44;5017478;28;45489;-65
2022/04/11 04:49:47;;;;;;;;;3.33;3.33;;;;;9.17;46.19;100782.81;5017688;28;45134;-64
2022/04/11 04:52:14;;;;;;;;;6.00;6.00;;;;;9.02;46.14;100766.47;5017662;28;45384;-63
2022/04/11 04:54:39;;;;;;;;;6.67;6.67;;;;;9.07;46.62;100783.66;5016087;28;49056;-64
2022/04/11 04:57:05;;;;;;;;;4.00;4.00;;;;;9.06;46.31;100787.28;5017491;28;45419;-65
2022/04/11 04:59:31;;;;;;;;;5.00;4.33;;;;;8.98;46.22;100778.28;5017925;28;45475;-64
2022/04/11 05:01:56;;;;;;;;;8.00;6.00;;;;;8.89;46.61;100773.78;5016472;28;45524;-64
2022/04/11 05:04:22;;;;;;;;;6.00;6.00;;;;;8.97;46.31;100796.00;5017115;28;46490;-64
2022/04/11 05:06:47;;;;;;;;;5.33;5.33;;;;;8.86;46.44;100777.53;5017416;28;45554;-64
2022/04/11 05:09:13;;;;;;;;;5.00;5.00;;;;;9.07;46.58;100804.03;5017537;28;45521;-64
2022/04/11 05:11:38;;;;;;;;;5.00;5.00;;;;;9.00;46.04;100806.34;5017431;28;45501;-63
2022/04/11 05:14:04;;;;;;;;;5.00;5.00;;;;;9.01;46.46;100796.56;5015665;28;45424;-65
2022/04/11 05:16:29;;;;;;;;;5.67;5.67;;;;;9.01;46.46;100785.97;5016980;28;45289;-65
2022/04/11 05:18:55;;;;;;;;;5.00;4.67;;;;;9.09;46.11;100778.19;5017644;28;45726;-63
2022/04/11 05:21:20;;;;;;;;;5.33;5.00;;;;;8.74;46.22;100707.84;5016937;28;45322;-67
2022/04/11 05:23:48;;;;;;;;;5.00;5.00;;;;;8.13;46.03;100606.31;5016450;28;47407;-67
2022/04/11 05:26:13;;;;;;;;;5.67;5.67;;;;;9.21;45.68;100778.94;5016674;28;45255;-66
2022/04/11 05:28:39;;;;;;;;;6.33;6.00;;;;;9.24;45.80;100774.22;5017072;28;45470;-63
2022/04/11 05:31:04;;;;;;;;;5.33;5.33;;;;;9.22;46.21;100773.53;5017408;28;45222;-67
2022/04/11 05:33:30;;;;;;;;;5.00;5.00;;;;;9.21;46.28;100768.31;5017121;28;45442;-66
2022/04/11 05:35:56;;;;;;;;;5.67;5.00;;;;;9.25;46.00;100772.41;5016372;28;45515;-64
2022/04/11 05:38:22;;;;;;;;;5.00;5.00;;;;;9.34;45.83;100777.72;5015311;28;45404;-65
2022/04/11 05:40:48;;;;;;;;;7.00;6.00;;;;;9.40;45.77;100779.81;5017061;28;45363;-65
2022/04/11 05:43:13;;;;;;;;;4.00;4.00;;;;;9.37;45.87;100753.56;5016723;28;45449;-65
2022/04/11 05:45:42;;;;;;;;;5.67;4.00;;;;;9.25;45.57;100727.31;5016812;28;45303;-66
2022/04/11 05:48:15;;;;;;;;;3.00;3.00;;;;;9.51;45.27;100756.81;5016792;28;45285;-68
2022/04/11 05:50:40;;;;;;;;;3.00;3.00;;;;;9.51;44.95;100775.41;5015265;28;45548;-65
2022/04/11 05:53:05;;;;;;;;;7.67;5.67;;;;;9.45;45.46;100774.97;5015402;28;46164;-64
2022/04/11 05:55:31;;;;;;;;;4.00;3.67;;;;;9.45;45.33;100782.09;5016702;28;45457;-66
2022/04/11 05:57:56;;;;;;;;;7.00;5.67;;;;;9.38;45.27;100771.16;5016050;28;45614;-64
2022/04/11 06:00:22;;;;;;;;;4.00;4.00;;;;;9.44;45.47;100789.22;5016878;28;45402;-64
2022/04/11 06:02:51;;;;;;;;;4.00;4.00;;;;;9.48;45.09;100794.25;5016749;28;46869;-66
2022/04/11 06:05:19;;;;;;;;;5.33;5.33;;;;;9.47;45.72;100789.91;5014961;28;45417;-64
2022/04/11 06:07:45;;;;;;;;;5.00;5.00;;;;;9.55;45.27;100782.94;5015110;28;45577;-63
2022/04/11 06:10:12;;;;;;;;;5.00;5.00;;;;;9.63;45.10;100785.78;5015995;28;45253;-64
2022/04/11 06:12:38;;;;;;;;;5.33;5.00;;;;;9.47;45.35;100779.31;5013979;28;46281;-65
2022/04/11 06:15:05;;;;;;;;;9.00;6.67;;;;;9.04;45.24;100700.88;5016276;28;45332;-65
2022/04/11 06:17:33;;;;;;;;;4.33;4.33;;;;;9.60;44.92;100790.50;5017615;28;45515;-73
2022/04/11 06:20:00;;;;;;;;;7.00;7.00;;;;;9.57;45.02;100767.72;5019733;28;45519;-74
2022/04/11 06:22:26;;;;;;;;;7.00;6.67;;;;;9.50;45.00;100752.50;5017795;28;45571;-65
2022/04/11 06:25:01;;;;;;;;;5.67;4.00;;;;;9.80;44.63;100786.91;5017927;28;45433;-65
2022/04/11 06:27:33;;;;;;;;;6.33;6.33;;;;;9.92;44.33;100780.50;4999880;28;45291;-65
2022/04/11 06:29:58;;;;;;;;;7.67;6.67;;;;;10.31;43.95;100785.84;4999572;28;45390;-67
2022/04/11 06:32:28;;;;;;;;;8.00;8.00;;;;;10.62;43.14;100787.34;4999225;28;46497;-65
2022/04/11 06:35:03;;;;;;;;;8.33;8.33;;;;;10.79;42.73;100784.91;4999862;28;45470;-65
2022/04/11 06:37:28;;;;;;;;;8.33;8.00;;;;;10.94;42.19;100771.00;4999051;28;45465;-64
2022/04/11 06:39:54;;;;;;;;;9.33;9.33;;;;;11.20;41.66;100784.47;5000159;28;45324;-64
2022/04/11 06:42:20;;;;;;;;;7.00;7.00;;;;;10.93;41.32;100710.81;4999660;28;46175;-65
2022/04/11 06:44:45;;;;;;;;;8.33;7.00;;;;;11.49;41.54;100762.19;4999536;28;45444;-65
2022/04/11 06:47:11;;;;;;;;;9.00;8.00;;;;;11.68;40.40;100746.09;4999650;28;45390;-64
2022/04/11 06:49:37;;;;;;;;;6.33;6.33;;;;;12.04;39.90;100756.78;5019159;28;45563;-65
2022/04/11 06:52:29;;;;;;;;;7.67;7.67;;;;;12.39;39.33;100761.22;5027958;28;46057;-69
2022/04/11 06:54:57;;;;;;;;;9.00;8.00;;;;;12.85;38.54;100741.38;5024028;28;45203;-65
2022/04/11 06:57:32;;;;;;;;;7.33;7.00;;;;;13.15;38.09;100748.00;5018663;28;45356;-68
2022/04/11 07:00:01;;;;;;;;;7.00;7.00;;;;;13.47;37.30;100738.47;5019000;28;45452;-65
2022/04/11 07:02:29;;;;;;;;;8.00;8.00;;;;;13.89;36.13;100727.69;5017513;28;46000;-66
2022/04/11 07:04:55;;;;;;;;;10.33;7.67;;;;;13.96;35.91;100709.97;5017771;28;45734;-67
2022/04/11 07:07:39;;;;;;;;;8.00;7.00;;;;;14.25;35.78;100741.59;5017348;28;45329;-65
2022/04/11 07:10:05;;;;;;;;;8.33;7.00;;;;;14.49;35.61;100738.06;5017377;28;45416;-64
2022/04/11 07:12:31;;;;;;;;;10.33;8.00;;;;;14.88;34.46;100728.28;5018697;28;46250;-66
2022/04/11 07:15:00;;;;;;;;;7.00;7.00;;;;;15.00;34.54;100709.97;5017809;28;45498;-65
2022/04/11 07:17:26;;;;;;;;;6.00;6.00;;;;;14.59;33.60;100591.56;5019330;28;45362;-65
2022/04/11 07:19:52;;;;;;;;;9.67;7.67;;;;;15.34;33.34;100698.13;5017579;28;45620;-66
2022/04/11 07:22:21;;;;;;;;;6.00;6.00;;;;;15.62;33.46;100701.19;5017512;28;46655;-66
2022/04/11 07:24:47;;;;;;;;;6.33;5.33;;;;;15.73;32.73;100706.94;5019072;28;45459;-65
2022/04/11 07:27:12;;;;;;;;;5.00;5.00;;;;;15.58;33.18;100644.38;5018685;28;45447;-65
2022/04/11 07:29:37;;;;;;;;;8.33;8.00;;;;;16.16;32.14;100706.44;5017461;28;45313;-65
2022/04/11 07:32:03;;;;;;;;;7.67;7.67;;;;;16.28;31.94;100708.53;5017915;28;45475;-65
2022/04/11 07:34:29;;;;;;;;;5.00;5.00;;;;;16.23;32.43;100680.59;5018598;28;45561;-65
2022/04/11 07:36:54;;;;;;;;;6.33;5.33;;;;;16.48;31.79;100695.41;5018505;28;45520;-64
2022/04/11 07:39:20;;;;;;;;;4.00;3.00;;;;;16.59;31.61;100696.78;5017000;28;45540;-63
2022/04/11 07:41:46;;;;;;;;;8.67;6.67;;;;;16.59;31.95;100686.06;5016989;28;47575;-63
2022/04/11 07:44:11;;;;;;;;;1.67;1.67;;;;;16.95;31.69;100694.22;5018372;28;45368;-65
2022/04/11 07:46:37;;;;;;;;;6.33;6.33;;;;;17.11;31.29;100685.97;5018505;28;45219;-64
2022/04/11 07:49:02;;;;;;;;;8.67;8.00;;;;;17.01;30.45;100672.00;5018509;28;45532;-66
2022/04/11 07:51:28;;;;;;;;;6.67;4.00;;;;;17.01;30.31;100682.72;5018041;28;45526;-64
2022/04/11 07:53:53;;;;;;;;;12.00;7.33;;;;;17.12;31.10;100689.50;5018065;28;45421;-66
2022/04/11 07:56:19;;;;;;;;;11.00;7.67;;;;;17.30;30.68;100684.53;5017336;28;45591;-66
2022/04/11 07:58:44;;;;;;;;;6.67;5.67;;;;;17.42;30.67;100666.91;5018383;28;45498;-66
2022/04/11 08:01:16;;;;;;;;;7.33;5.33;;;;;17.52;30.20;100671.97;5017430;28;48122;-69
2022/04/11 08:03:42;;;;;;;;;6.67;5.33;;;;;17.55;30.15;100661.66;5016978;28;45226;-64
2022/04/11 08:06:07;;;;;;;;;8.33;8.33;;;;;17.84;30.02;100682.25;5018310;28;45290;-65
2022/04/11 08:08:33;;;;;;;;;5.67;4.33;;;;;18.06;29.76;100663.41;5018308;28;45225;-66
2022/04/11 08:10:58;;;;;;;;;4.33;4.33;;;;;18.44;29.15;100683.56;5018393;28;46554;-65
2022/04/11 08:13:24;;;;;;;;;6.67;6.00;;;;;18.47;29.33;100626.63;5018116;28;45424;-65
2022/04/11 08:15:49;;;;;;;;;8.67;7.00;;;;;18.82;28.31;100664.31;5018050;28;45493;-64
2022/04/11 08:18:15;;;;;;;;;4.67;4.67;;;;;18.87;28.56;100666.44;5018578;28;45201;-64
2022/04/11 08:20:40;;;;;;;;;7.00;4.33;;;;;18.86;28.30;100671.00;5017677;28;45630;-64
2022/04/11 08:23:06;;;;;;;;;6.00;6.00;;;;;19.02;28.05;100670.66;5018156;28;45407;-65
2022/04/11 08:25:31;;;;;;;;;8.33;6.00;;;;;19.11;28.50;100674.00;5017967;28;45355;-65
2022/04/11 08:27:56;;;;;;;;;7.33;5.67;;;;;19.33;28.08;100677.41;5017780;28;45328;-65
2022/04/11 08:30:22;;;;;;;;;4.33;4.33;;;;;19.42;27.87;100660.84;5017753;28;46095;-64
2022/04/11 08:32:50;;;;;;;;;6.67;6.00;;;;;19.73;27.56;100662.16;5017682;28;45480;-65
2022/04/11 08:35:19;;;;;;;;;6.67;6.67;;;;;19.97;27.34;100622.94;5016536;28;45496;-63
2022/04/11 08:37:45;;;;;;;;;5.67;5.67;;;;;20.59;26.26;100662.97;5017653;28;45506;-65
2022/04/11 08:40:13;;;;;;;;;6.00;6.00;;;;;20.74;26.52;100668.13;5016944;28;46382;-66
2022/04/11 08:42:43;;;;;;;;;8.00;7.00;;;;;21.15;26.37;100653.41;5017915;28;45403;-64
2022/04/11 08:45:09;;;;;;;;;9.00;7.67;;;;;21.55;25.53;100662.16;5016620;28;45261;-65
2022/04/11 08:47:35;;;;;;;;;8.33;7.33;;;;;21.70;24.96;100653.75;5017952;28;45208;-64
2022/04/11 08:50:04;;;;;;;;;5.00;5.00;;;;;21.75;24.17;100629.56;5015882;28;47002;-63
2022/04/11 08:52:31;;;;;;;;;8.33;5.67;;;;;21.93;24.79;100604.44;5017546;28;45297;-66
2022/04/11 08:54:57;;;;;;;;;4.67;4.67;;;;;22.62;24.51;100623.13;5015926;28;45537;-64
2022/04/11 08:57:23;;;;;;;;;3.00;3.00;;;;;22.88;23.33;100632.06;5017813;28;45515;-66
2022/04/11 08:59:49;;;;;;;;;7.33;5.33;;;;;22.97;23.41;100619.81;5015425;28;46958;-65
2022/04/11 09:02:15;;;;;;;;;5.00;5.00;;;;;23.02;23.11;100592.84;5017347;28;45329;-64
2022/04/11 09:04:51;;;;;;;;;4.67;3.33;;;;;23.28;22.74;100622.34;5017472;28;45194;-65
2022/04/11 09:07:17;;;;;;;;;4.67;4.67;;;;;23.28;22.39;100606.06;5016233;28;45397;-66
2022/04/11 09:09:42;;;;;;;;;5.00;4.00;;;;;23.58;21.94;100614.19;5015924;28;48490;-64
2022/04/11 09:12:14;;;;;;;;;3.00;3.00;;;;;24.10;22.35;100605.41;5017375;28;45482;-64
2022/04/11 09:14:40;;;;;;;;;7.67;4.67;;;;;24.67;21.18;100597.44;5015843;28;45305;-64
2022/04/11 09:17:06;;;;;;;;;5.00;5.00;;;;;25.40;20.95;100610.28;5017314;28;45447;-64
2022/04/11 09:19:33;;;;;;;;;6.33;5.00;;;;;25.61;20.52;100579.63;5016891;28;46875;-68
2022/04/11 09:21:59;;;;;;;;;3.00;3.00;;;;;26.53;19.70;100600.13;5017045;28;45426;-65
2022/04/11 09:24:26;;;;;;;;;8.33;4.67;;;;;26.81;19.39;100602.66;5017304;28;45269;-64
2022/04/11 09:26:55;;;;;;;;;5.33;5.33;;;;;27.44;18.28;100611.31;5016403;28;45554;-65
2022/04/11 09:29:32;;;;;;;;;4.33;4.00;;;;;28.07;17.72;100588.63;5016503;28;46583;-64
2022/04/11 09:32:04;;;;;;;;;4.33;4.00;;;;;28.24;16.64;100532.94;5016696;28;45405;-65
2022/04/11 09:34:30;;;;;;;;;4.33;4.33;;;;;28.50;16.79;100517.50;5015510;28;45273;-65
2022/04/11 09:37:01;;;;;;;;;5.67;4.00;;;;;28.28;17.14;100536.81;5017077;28;45446;-64
2022/04/11 09:39:28;;;;;;;;;4.33;4.33;;;;;28.65;17.46;100575.00;5016602;28;46294;-64
2022/04/11 09:41:57;;;;;;;;;4.67;4.67;;;;;29.39;17.21;100577.38;5016343;28;45535;-64
2022/04/11 09:44:36;;;;;;;;;3.00;3.00;;;;;30.26;15.64;100583.69;5016633;28;45583;-64
2022/04/11 09:47:06;;;;;;;;;2.33;2.33;;;;;29.99;15.51;100521.72;5015917;28;45442;-66
2022/04/11 09:49:33;;;;;;;;;3.33;3.33;;;;;30.38;15.50;100559.47;5016496;28;46528;-65
2022/04/11 09:52:14;;;;;;;;;5.67;4.00;;;;;30.57;15.16;100568.72;5015678;28;45498;-65
2022/04/11 09:54:47;;;;;;;;;4.00;4.00;;;;;30.10;15.19;100521.75;5016742;28;45273;-65
2022/04/11 09:57:15;;;;;;;;;3.33;3.33;;;;;30.80;15.13;100550.00;5016968;28;45394;-62
2022/04/11 09:59:41;;;;;;;;;2.67;2.67;;;;;30.34;15.54;100547.44;5016270;28;46924;-66
2022/04/11 10:02:08;;;;;;;;;3.67;3.67;;;;;29.78;16.33;100566.72;5014966;28;45490;-65
2022/04/11 10:04:34;;;;;;;;;3.00;3.00;;;;;29.51;15.95;100504.00;5015173;28;45463;-66
2022/04/11 10:07:00;;;;;;;;;3.00;3.00;;;;;29.69;16.14;100568.38;5015632;28;45471;-69
2022/04/11 10:09:26;;;;;;;;;4.00;4.00;;;;;29.08;16.20;100558.19;5014609;28;45826;-66
2022/04/11 10:11:54;;;;;;;;;4.00;4.00;;;;;28.44;17.45;100539.38;5015009;28;45427;-71
2022/04/11 10:14:28;;;;;;;;;3.67;3.67;;;;;27.63;17.51;100552.50;5015746;28;45286;-68
2022/04/11 10:17:00;;;;;;;;;4.00;4.00;;;;;26.95;18.65;100552.09;5012591;28;45607;-67
2022/04/11 10:19:33;;;;;;;;;5.67;5.67;;;;;26.31;19.00;100519.13;5031027;28;47510;-66
2022/04/11 10:22:25;;;;;;;;;4.33;4.33;;;;;25.60;19.25;100490.88;5015813;28;45535;-65
2022/04/11 10:25:04;;;;;;;;;3.33;2.00;;;;;25.30;20.16;100547.53;5016035;28;45286;-66
2022/04/11 10:27:30;;;;;;;;;4.00;4.00;;;;;24.37;20.26;100546.81;4998504;28;45565;-66
2022/04/11 10:29:57;;;;;;;;;3.00;3.00;;;;;23.87;21.67;100569.03;5013663;28;48639;-66
2022/04/11 10:32:27;;;;;;;;;3.67;3.00;;;;;23.41;21.88;100558.06;5015069;28;45617;-67
2022/04/11 10:35:08;;;;;;;;;3.00;3.00;;;;;22.22;22.95;100494.63;5004576;28;45409;-67
2022/04/11 10:37:39;;;;;;;;;4.67;4.67;;;;;22.11;23.69;100540.34;5015035;28;45377;-67
2022/04/11 10:40:17;;;;;;;;;3.00;3.00;;;;;21.78;23.78;100537.13;5015344;28;45550;-67
2022/04/11 10:43:00;;;;;;;;;3.67;3.00;;;;;21.45;24.54;100542.81;5008222;28;45438;-65
2022/04/11 10:45:30;;;;;;;;;3.33;2.67;;;;;20.92;24.88;100524.22;5015844;28;45363;-66
2022/04/11 10:47:55;;;;;;;;;2.00;2.00;;;;;19.79;25.52;100409.63;5016126;28;45442;-65
2022/04/11 10:50:22;;;;;;;;;3.67;3.67;;;;;20.16;26.70;100527.63;5015729;28;47598;-67
2022/04/11 10:52:53;;;;;;;;;2.00;2.00;;;;;19.86;27.04;100521.06;5015345;28;45323;-67
2022/04/11 10:55:22;;;;;;;;;4.00;4.00;;;;;19.73;27.22;100521.91;5015444;28;45407;-64
2022/04/11 10:57:50;;;;;;;;;3.00;3.00;;;;;19.52;27.57;100535.56;5015907;28;45629;-66
2022/04/11 11:00:27;;;;;;;;;5.00;3.67;;;;;19.35;28.10;100518.97;5015690;28;47461;-65
2022/04/11 11:02:52;;;;;;;;;3.00;3.00;;;;;19.35;28.42;100529.75;5014466;28;45454;-66
2022/04/11 11:05:36;;;;;;;;;5.00;5.00;;;;;19.23;28.72;100505.31;5018610;28;45358;-67
2022/04/11 11:08:17;;;;;;;;;3.00;3.00;;;;;18.96;28.72;100507.09;5017765;28;45307;-66
2022/04/11 11:10:52;;;;;;;;;2.67;2.67;;;;;18.79;28.96;100503.13;5018034;28;45768;-65
2022/04/11 11:13:36;;;;;;;;;4.00;4.00;;;;;18.47;29.61;100505.50;5018642;28;45409;-65
2022/04/11 11:16:07;;;;;;;;;2.67;2.67;;;;;18.22;30.63;100509.75;5018966;28;45655;-64
2022/04/11 11:18:48;;;;;;;;;6.33;6.33;;;;;18.06;30.88;100502.00;5019043;28;45183;-64
2022/04/11 11:21:44;;;;;;;;;6.33;4.67;;;;;18.03;31.10;100508.59;5018503;28;45777;-67
2022/04/11 11:24:11;;;;;;;;;7.00;4.67;;;;;18.01;31.28;100507.13;5017882;28;45435;-65
2022/04/11 11:26:48;;;;;;;;;2.00;2.00;;;;;17.89;31.73;100513.06;5019193;28;45591;-64
2022/04/11 11:29:32;;;;;;;;;8.00;4.33;;;;;17.92;31.64;100518.03;5018164;28;45643;-66